Time;durP1;ratioP1;P1;durP2;ratioP2;P2;SDS_P1;SDS_P2;PMS_P1;PMS_P2;Temp;Humidity;BMP_temperature;BMP_pressure;BME280_temperature;BME280_humidity;BME280_pressure;Samples;Min_cycle;Max_cycle;Signal;HPM_P1;HPM_P2
2022/01/20 00:01:57;;;;;;;6.82;2.85;;;6.90;69.70;;;;;;5067429;28;20046;-85
2022/01/20 00:04:42;;;;;;;8.00;3.00;;;6.80;69.60;;;;;;5065629;28;20373;-85
2022/01/20 00:09:53;;;;;;;5.47;2.33;;;6.70;69.60;;;;;;5067243;28;20527;-83
2022/01/20 00:26:04;;;;;;;7.15;2.80;;;6.40;70.00;;;;;;5029224;28;20033;-84
2022/01/20 00:28:45;;;;;;;6.78;2.40;;;6.40;69.50;;;;;;5051515;28;20031;-82
2022/01/20 00:33:44;;;;;;;7.53;2.92;;;6.30;69.40;;;;;;5065719;28;20076;-83
2022/01/20 00:38:39;;;;;;;5.20;2.53;;;6.20;69.40;;;;;;5065421;28;20040;-83
2022/01/20 00:41:07;;;;;;;6.63;2.90;;;6.20;69.40;;;;;;5065368;28;20111;-83
2022/01/20 00:43:33;;;;;;;4.97;2.50;;;6.20;69.50;;;;;;5065766;28;20052;-85
2022/01/20 00:45:59;;;;;;;5.57;2.35;;;6.10;69.40;;;;;;5049155;28;20432;-83
2022/01/20 00:48:26;;;;;;;9.45;2.50;;;6.20;69.50;;;;;;5065476;28;20028;-83
2022/01/20 00:50:52;;;;;;;7.80;2.75;;;6.10;69.40;;;;;;5065319;28;20391;-83
2022/01/20 00:53:18;;;;;;;5.43;3.13;;;6.10;69.40;;;;;;5065906;28;20025;-83
2022/01/20 00:55:45;;;;;;;6.20;2.75;;;6.10;69.50;;;;;;5065387;28;20131;-86
2022/01/20 00:58:11;;;;;;;6.53;2.97;;;6.00;69.30;;;;;;5066098;28;20051;-87
2022/01/20 01:00:37;;;;;;;5.43;2.60;;;6.00;69.40;;;;;;5065906;28;20479;-89
2022/01/20 01:03:03;;;;;;;5.03;2.75;;;5.90;69.20;;;;;;5073613;28;20107;-86
2022/01/20 01:05:30;;;;;;;5.20;2.38;;;5.90;69.20;;;;;;5088443;28;20028;-85
2022/01/20 01:07:57;;;;;;;7.03;2.50;;;5.90;69.30;;;;;;5089152;28;20012;-85
2022/01/20 01:10:28;;;;;;;9.55;3.55;;;5.90;69.40;;;;;;5089654;28;20057;-85
2022/01/20 01:13:01;;;;;;;7.00;2.42;;;5.80;69.20;;;;;;5103936;28;20048;-87
2022/01/20 01:15:36;;;;;;;;;;;5.80;69.30;;;;;;5092885;28;20024;-87
2022/01/20 01:23:36;;;;;;;5.97;2.60;;;5.80;69.20;;;;;;5094575;28;20024;-87
2022/01/20 01:26:11;;;;;;;7.60;3.05;;;5.70;69.10;;;;;;5094262;28;20013;-88
2022/01/20 01:28:38;;;;;;;7.47;2.60;;;5.70;69.20;;;;;;5075290;28;20133;-88
2022/01/20 01:33:58;;;;;;;7.15;2.28;;;5.60;69.10;;;;;;5093451;28;20072;-85
2022/01/20 01:36:28;;;;;;;5.05;2.47;;;5.60;69.20;;;;;;5079545;28;20043;-88
2022/01/20 01:38:55;;;;;;;4.65;2.20;;;5.60;69.30;;;;;;5065265;28;20367;-86
2022/01/20 01:41:33;;;;;;;6.70;2.42;;;5.60;69.30;;;;;;5054216;28;20500;-86
2022/01/20 01:44:05;;;;;;;7.40;2.35;;;5.50;69.20;;;;;;5068837;28;20249;-86
2022/01/20 01:46:32;;;;;;;8.20;2.53;;;5.50;69.20;;;;;;5051544;28;20025;-86
2022/01/20 01:48:58;;;;;;;6.50;2.20;;;5.50;69.20;;;;;;5051072;28;20115;-86
2022/01/20 01:51:26;;;;;;;3.63;2.00;;;5.50;69.20;;;;;;5017559;28;20028;-82
2022/01/20 01:53:53;;;;;;;5.80;2.78;;;5.50;69.30;;;;;;5067170;28;20102;-86
2022/01/20 01:56:22;;;;;;;8.48;3.08;;;5.40;69.10;;;;;;5051819;28;20029;-84
2022/01/20 01:58:49;;;;;;;5.40;2.40;;;5.50;69.30;;;;;;5040473;28;20131;-86
2022/01/20 02:01:41;;;;;;;7.35;2.38;;;5.40;69.10;;;;;;5077780;28;20494;-87
2022/01/20 02:04:24;;;;;;;5.65;1.90;;;5.40;69.20;;;;;;5054862;28;20029;-87
2022/01/20 02:18:36;;;;;;;4.60;2.05;;;5.30;69.10;;;;;;5069058;28;20048;-88
2022/01/20 02:21:14;;;;;;;5.35;2.08;;;5.30;69.60;;;;;;5068641;28;20433;-87
2022/01/20 02:23:43;;;;;;;4.53;2.22;;;5.20;69.00;;;;;;5052320;28;20123;-88
2022/01/20 02:26:10;;;;;;;4.97;2.00;;;5.20;69.40;;;;;;5068023;28;20090;-89
2022/01/20 02:28:36;;;;;;;6.68;2.42;;;5.20;69.10;;;;;;5067885;28;20055;-88
2022/01/20 02:31:03;;;;;;;4.72;2.13;;;5.10;69.00;;;;;;5051097;28;20475;-87
2022/01/20 02:33:30;;;;;;;6.03;2.30;;;5.10;69.00;;;;;;5068012;28;20207;-86
2022/01/20 02:36:08;;;;;;;4.65;2.50;;;5.20;69.20;;;;;;5068782;28;20109;-84
2022/01/20 02:38:53;;;;;;;5.78;2.10;;;5.10;69.10;;;;;;5067655;28;20483;-85
2022/01/20 02:46:48;;;;;;;3.78;2.15;;;5.10;69.10;;;;;;5074870;28;20024;-87
2022/01/20 02:49:16;;;;;;;4.63;2.17;;;5.10;69.10;;;;;;5054024;28;20025;-86
2022/01/20 02:51:52;;;;;;;5.50;2.00;;;5.10;69.10;;;;;;5070985;28;20028;-86
2022/01/20 02:54:19;;;;;;;3.45;1.40;;;5.10;69.10;;;;;;5053710;28;20048;-85
2022/01/20 02:56:46;;;;;;;10.65;2.17;;;5.10;69.10;;;;;;5070569;28;20024;-85
2022/01/20 02:59:15;;;;;;;3.65;2.15;;;5.10;69.10;;;;;;5070710;28;20032;-87
2022/01/20 03:01:41;;;;;;;7.03;1.95;;;5.00;69.00;;;;;;5070373;28;20119;-84
2022/01/20 03:04:07;;;;;;;3.38;1.98;;;5.00;69.00;;;;;;5070732;28;20037;-84
2022/01/20 03:06:34;;;;;;;3.17;1.90;;;5.00;69.00;;;;;;5070456;28;20025;-84
2022/01/20 03:09:00;;;;;;;5.05;2.17;;;4.90;68.90;;;;;;5070220;28;20033;-83
2022/01/20 03:11:31;;;;;;;5.65;1.85;;;4.90;68.90;;;;;;5070269;28;20170;-85
2022/01/20 03:13:57;;;;;;;8.75;2.90;;;4.90;68.90;;;;;;5071003;28;20506;-84
2022/01/20 03:16:23;;;;;;;5.90;1.50;;;4.90;69.00;;;;;;5053849;28;20443;-87
2022/01/20 03:18:49;;;;;;;6.40;1.90;;;4.90;69.00;;;;;;5070048;28;20051;-86
2022/01/20 03:21:15;;;;;;;4.75;2.00;;;4.80;68.80;;;;;;5070396;28;20743;-87
2022/01/20 03:23:42;;;;;;;7.22;2.22;;;4.80;68.90;;;;;;5053405;28;20039;-87
2022/01/20 03:26:08;;;;;;;3.35;1.90;;;4.70;68.70;;;;;;5070323;28;20025;-90
2022/01/20 03:28:34;;;;;;;8.38;2.15;;;4.80;69.00;;;;;;5071006;28;20369;-89
2022/01/20 03:31:00;;;;;;;5.25;2.10;;;4.70;68.80;;;;;;5070155;28;20466;-89
2022/01/20 03:33:26;;;;;;;8.65;1.98;;;4.70;68.80;;;;;;5069955;28;20060;-89
2022/01/20 03:35:53;;;;;;;6.80;1.60;;;4.70;68.90;;;;;;5070165;28;20071;-90
2022/01/20 03:38:46;;;;;;;5.47;1.75;;;4.70;68.90;;;;;;5047236;28;20041;-89
2022/01/20 03:41:13;;;;;;;6.57;1.80;;;4.60;68.70;;;;;;5069827;28;20032;-89
2022/01/20 03:43:39;;;;;;;5.70;1.85;;;4.60;68.70;;;;;;5070285;28;20024;-89
2022/01/20 03:46:12;;;;;;;4.82;1.83;;;4.60;69.30;;;;;;5053522;28;20032;-89
2022/01/20 03:48:49;;;;;;;5.75;1.83;;;4.60;68.80;;;;;;5069890;28;20028;-89
2022/01/20 03:51:20;;;;;;;3.33;1.55;;;4.60;68.80;;;;;;5053172;28;20142;-88
2022/01/20 03:53:50;;;;;;;5.45;2.20;;;4.50;68.60;;;;;;5069558;28;20119;-87
2022/01/20 03:56:18;;;;;;;4.63;1.80;;;4.50;68.60;;;;;;5053058;28;20060;-84
2022/01/20 03:59:09;;;;;;;6.53;1.67;;;4.50;68.60;;;;;;5070748;28;20598;-85
2022/01/20 04:01:36;;;;;;;5.05;1.65;;;4.50;68.70;;;;;;5052743;28;20124;-88
2022/01/20 04:04:24;;;;;;;3.80;1.70;;;4.50;68.70;;;;;;5069563;28;20048;-90
2022/01/20 04:07:05;;;;;;;3.53;1.50;;;4.40;68.50;;;;;;5053580;28;20123;-90
2022/01/20 04:09:32;;;;;;;4.55;1.52;;;4.50;68.70;;;;;;5069207;28;20508;-85
2022/01/20 04:11:58;;;;;;;4.35;1.80;;;4.40;68.50;;;;;;5052962;28;20032;-85
2022/01/20 04:14:26;;;;;;;5.03;1.85;;;4.40;68.50;;;;;;5071106;28;20040;-86
2022/01/20 04:19:24;;;;;;;4.72;1.85;;;4.40;68.50;;;;;;5069498;28;20119;-86
2022/01/20 04:21:50;;;;;;;3.75;1.75;;;4.40;68.60;;;;;;5052221;28;20041;-86
2022/01/20 04:24:16;;;;;;;4.72;1.63;;;4.30;68.40;;;;;;5069814;28;20490;-88
2022/01/20 04:26:45;;;;;;;3.83;1.42;;;4.40;68.60;;;;;;5054616;28;20507;-88
2022/01/20 04:29:13;;;;;;;4.32;1.60;;;4.30;68.50;;;;;;5080870;28;20044;-86
2022/01/20 04:31:41;;;;;;;3.30;1.30;;;4.30;68.50;;;;;;5079464;28;20565;-89
2022/01/20 04:34:08;;;;;;;5.20;2.00;;;4.30;68.50;;;;;;5052887;28;20399;-84
2022/01/20 04:36:38;;;;;;;4.20;1.80;;;4.30;68.50;;;;;;5052633;28;20529;-84
2022/01/20 04:39:08;;;;;;;3.80;1.60;;;4.30;68.50;;;;;;5069317;28;20063;-84
2022/01/20 04:41:35;;;;;;;5.40;2.03;;;4.30;68.60;;;;;;5069231;28;20202;-84
2022/01/20 04:44:08;;;;;;;3.55;1.50;;;4.20;68.40;;;;;;5052825;28;20548;-83
2022/01/20 04:46:44;;;;;;;3.95;1.38;;;4.20;68.40;;;;;;5070577;28;20033;-85
2022/01/20 04:57:25;;;;;;;3.85;1.35;;;4.10;68.20;;;;;;5074778;28;20025;-85
2022/01/20 04:59:54;;;;;;;5.65;1.98;;;4.10;68.20;;;;;;5075860;28;20104;-85
2022/01/20 05:02:23;;;;;;;4.60;1.48;;;4.10;68.30;;;;;;5074455;28;20380;-85
2022/01/20 05:04:55;;;;;;;3.63;1.98;;;4.00;68.10;;;;;;5073326;28;20115;-84
2022/01/20 05:07:45;;;;;;;2.70;1.33;;;4.00;68.10;;;;;;5065788;28;20032;-85
2022/01/20 05:10:13;;;;;;;5.28;1.23;;;4.00;68.20;;;;;;5073018;28;20025;-85
2022/01/20 05:15:16;;;;;;;4.85;1.45;;;3.90;68.00;;;;;;5072572;28;20059;-84
2022/01/20 05:17:42;;;;;;;4.13;1.40;;;3.90;68.00;;;;;;5072713;28;20420;-84
2022/01/20 05:20:10;;;;;;;2.60;1.17;;;3.90;68.00;;;;;;5071937;28;20086;-84
2022/01/20 05:22:37;;;;;;;7.45;1.85;;;3.90;68.10;;;;;;5056123;28;20103;-85
2022/01/20 05:25:06;;;;;;;2.42;1.50;;;3.90;68.10;;;;;;5072306;28;20047;-85
2022/01/20 05:27:33;;;;;;;3.25;1.30;;;3.80;67.90;;;;;;5072398;28;20035;-88
2022/01/20 05:30:00;;;;;;;2.20;1.40;;;3.80;68.00;;;;;;5072502;28;20278;-90
2022/01/20 05:32:27;;;;;;;4.82;1.42;;;3.80;68.00;;;;;;5055887;28;20024;-88
2022/01/20 05:34:53;;;;;;;3.35;1.52;;;3.80;68.00;;;;;;5071837;28;20553;-87
2022/01/20 05:37:19;;;;;;;3.42;1.10;;;3.70;67.80;;;;;;5055523;28;20024;-87
2022/01/20 05:39:48;;;;;;;6.38;1.80;;;3.70;67.80;;;;;;5072236;28;20029;-88
2022/01/20 05:42:18;;;;;;;4.90;1.30;;;3.70;67.90;;;;;;5072245;28;20037;-87
2022/01/20 05:44:52;;;;;;;3.50;1.67;;;3.70;67.80;;;;;;5071979;28;20395;-87
2022/01/20 05:47:27;;;;;;;5.20;1.83;;;3.70;67.80;;;;;;5072315;28;20059;-88
2022/01/20 05:50:22;;;;;;;5.57;2.00;;;3.70;67.90;;;;;;5035188;28;20052;-89
2022/01/20 05:52:49;;;;;;;5.25;1.73;;;3.70;67.80;;;;;;5071547;28;20491;-88
2022/01/20 05:55:18;;;;;;;5.68;1.58;;;3.60;67.60;;;;;;5055734;28;20041;-86
2022/01/20 05:57:48;;;;;;;5.88;1.52;;;3.60;67.70;;;;;;5064960;28;20071;-92
2022/01/20 06:00:20;;;;;;;4.45;1.35;;;3.60;67.70;;;;;;5066581;28;20033;-93
2022/01/20 06:05:37;;;;;;;3.92;1.70;;;3.60;67.70;;;;;;5080932;28;20035;-87
2022/01/20 06:08:05;;;;;;;6.15;1.48;;;3.60;67.70;;;;;;5070957;28;20413;-93
2022/01/20 06:10:31;;;;;;;4.00;2.13;;;3.60;67.70;;;;;;5070306;28;20029;-93
2022/01/20 06:13:05;;;;;;;4.78;1.52;;;3.60;67.70;;;;;;5070627;28;20055;-87
2022/01/20 06:15:31;;;;;;;5.88;2.22;;;3.60;67.70;;;;;;5054815;28;20040;-90
2022/01/20 06:17:58;;;;;;;5.18;1.58;;;3.60;67.70;;;;;;5048581;28;20127;-85
2022/01/20 06:20:25;;;;;;;3.70;1.70;;;3.60;67.70;;;;;;5031067;28;20052;-86
2022/01/20 06:22:51;;;;;;;6.18;1.75;;;3.60;67.70;;;;;;5044842;28;20070;-85
2022/01/20 06:25:17;;;;;;;3.92;2.00;;;3.60;67.70;;;;;;5072770;28;20387;-92
2022/01/20 06:27:43;;;;;;;6.35;1.80;;;3.60;67.70;;;;;;5051428;28;20028;-86
2022/01/20 06:30:10;;;;;;;2.95;1.25;;;3.60;67.70;;;;;;5071212;28;20033;-94
2022/01/20 06:32:36;;;;;;;5.25;1.30;;;3.60;67.80;;;;;;5049963;28;20361;-90
2022/01/20 06:35:04;;;;;;;5.38;1.65;;;3.60;67.70;;;;;;5068429;28;20080;-90
2022/01/20 06:37:30;;;;;;;4.03;1.80;;;3.60;67.70;;;;;;5067722;28;20032;-86
2022/01/20 06:39:56;;;;;;;4.38;1.33;;;3.60;67.60;;;;;;5052029;28;20039;-88
2022/01/20 06:42:22;;;;;;;3.53;1.70;;;3.60;67.60;;;;;;5067932;28;20028;-88
2022/01/20 06:44:49;;;;;;;4.78;2.00;;;3.60;67.70;;;;;;5068267;28;20028;-90
2022/01/20 06:47:15;;;;;;;6.43;2.38;;;3.60;67.60;;;;;;5051739;28;20033;-89
2022/01/20 06:49:41;;;;;;;4.05;1.48;;;3.60;67.70;;;;;;5067820;28;20028;-85
2022/01/20 06:52:08;;;;;;;5.47;2.10;;;3.60;67.90;;;;;;5091811;28;20020;-86
2022/01/20 06:54:36;;;;;;;4.60;1.38;;;3.50;67.50;;;;;;5067779;28;20037;-86
2022/01/20 06:57:04;;;;;;;5.00;2.15;;;3.50;67.60;;;;;;5050600;28;20052;-82
2022/01/20 06:59:30;;;;;;;7.03;1.92;;;3.50;67.60;;;;;;5061053;28;20103;-85
2022/01/20 07:01:57;;;;;;;5.90;2.22;;;3.50;68.20;;;;;;5036640;28;20029;-89
2022/01/20 07:04:27;;;;;;;5.85;2.08;;;3.70;68.70;;;;;;5052882;28;20028;-76
2022/01/20 07:06:55;;;;;;;4.43;2.03;;;3.80;68.70;;;;;;5071062;28;20029;-84
2022/01/20 07:09:39;;;;;;;8.55;2.35;;;3.80;68.50;;;;;;5073209;28;20391;-87
2022/01/20 07:12:34;;;;;;;5.32;1.85;;;3.90;68.60;;;;;;5074322;28;20119;-89
2022/01/20 07:15:01;;;;;;;7.22;2.67;;;3.90;68.50;;;;;;5070551;28;20037;-89
2022/01/20 07:17:27;;;;;;;6.22;1.98;;;3.80;68.40;;;;;;5055201;28;20388;-90
2022/01/20 07:19:54;;;;;;;4.47;2.05;;;3.80;68.40;;;;;;5086468;28;20037;-86
2022/01/20 07:22:22;;;;;;;4.55;3.30;;;3.80;68.50;;;;;;5069395;28;20028;-82
2022/01/20 07:24:50;;;;;;;8.10;2.67;;;3.70;68.30;;;;;;5086175;28;20035;-92
2022/01/20 07:27:30;;;;;;;4.10;1.98;;;3.70;68.40;;;;;;5068603;28;20060;-86
2022/01/20 07:29:56;;;;;;;5.30;2.80;;;3.60;68.30;;;;;;5068778;28;20025;-89
2022/01/20 07:32:22;;;;;;;4.15;2.50;;;3.60;68.40;;;;;;5085846;28;20032;-85
2022/01/20 07:34:48;;;;;;;7.22;3.20;;;3.60;68.40;;;;;;5070539;28;20071;-87
2022/01/20 07:37:15;;;;;;;5.57;2.75;;;3.60;68.50;;;;;;5072679;28;20483;-89
2022/01/20 07:39:41;;;;;;;6.85;3.25;;;3.60;68.50;;;;;;5051628;28;20446;-84
2022/01/20 07:42:08;;;;;;;7.40;2.85;;;3.60;68.50;;;;;;5058885;28;20489;-89
2022/01/20 07:44:56;;;;;;;6.03;3.03;;;3.50;68.40;;;;;;5070340;28;20043;-94
2022/01/20 07:47:26;;;;;;;7.70;2.72;;;3.50;68.40;;;;;;5070005;28;20368;-90
2022/01/20 07:49:52;;;;;;;6.82;3.35;;;3.50;68.40;;;;;;5070629;28;20447;-88
2022/01/20 07:52:20;;;;;;;6.43;3.10;;;3.50;68.40;;;;;;5069157;28;20042;-90
2022/01/20 07:54:46;;;;;;;7.25;3.40;;;3.50;68.40;;;;;;5060888;28;20041;-91
2022/01/20 07:57:12;;;;;;;7.03;2.90;;;3.50;68.40;;;;;;5050044;28;20036;-94
2022/01/20 07:59:38;;;;;;;7.20;3.35;;;3.50;68.40;;;;;;5030272;28;20399;-83
2022/01/20 08:02:04;;;;;;;9.10;3.10;;;3.50;68.40;;;;;;5046398;28;20029;-78
2022/01/20 08:04:32;;;;;;;7.30;3.72;;;3.50;68.40;;;;;;5035118;28;20380;-78
2022/01/20 08:07:00;;;;;;;8.23;3.25;;;3.50;68.40;;;;;;5065895;28;20039;-78
2022/01/20 08:09:26;;;;;;;6.97;3.72;;;3.60;68.50;;;;;;5048839;28;20068;-81
2022/01/20 08:12:15;;;;;;;6.97;3.05;;;3.60;68.50;;;;;;5058826;28;20033;-83
2022/01/20 08:14:41;;;;;;;5.88;3.35;;;3.60;68.50;;;;;;5067177;28;20047;-82
2022/01/20 08:17:11;;;;;;;6.45;3.33;;;3.60;68.50;;;;;;5066268;28;20511;-82
2022/01/20 08:19:41;;;;;;;5.82;3.47;;;3.60;68.50;;;;;;5065622;28;20040;-82
2022/01/20 08:22:07;;;;;;;9.25;3.28;;;3.60;68.40;;;;;;5066701;28;20043;-81
2022/01/20 08:24:35;;;;;;;5.88;3.67;;;3.60;68.40;;;;;;5066801;28;20032;-82
2022/01/20 08:27:01;;;;;;;6.78;3.03;;;3.70;68.60;;;;;;5070310;28;20024;-80
2022/01/20 08:29:27;;;;;;;5.55;3.28;;;3.70;68.50;;;;;;5086929;28;20534;-80
2022/01/20 08:31:53;;;;;;;6.82;3.40;;;3.70;68.50;;;;;;5068394;28;20024;-82
2022/01/20 08:34:32;;;;;;;5.45;3.10;;;3.70;68.50;;;;;;5069133;28;20084;-80
2022/01/20 08:37:43;;;;;;;7.88;3.08;;;3.80;68.60;;;;;;5069586;28;20029;-81
2022/01/20 08:40:12;;;;;;;9.27;3.72;;;3.80;68.50;;;;;;5069426;28;20032;-79
2022/01/20 08:42:40;;;;;;;7.18;2.88;;;3.90;68.70;;;;;;5069707;28;20020;-85
2022/01/20 08:45:10;;;;;;;9.32;3.30;;;3.90;68.60;;;;;;5083581;28;20033;-83
2022/01/20 08:47:36;;;;;;;9.63;3.20;;;4.00;68.70;;;;;;5049626;28;20033;-84
2022/01/20 08:50:05;;;;;;;7.75;2.90;;;4.00;68.70;;;;;;5082208;28;20036;-85
2022/01/20 08:52:32;;;;;;;8.73;2.92;;;4.10;68.70;;;;;;5048985;28;20036;-85
2022/01/20 08:54:58;;;;;;;9.43;2.92;;;4.20;68.80;;;;;;5082904;28;20041;-84
2022/01/20 08:57:48;;;;;;;7.30;2.88;;;4.20;68.60;;;;;;5060849;28;20067;-83
2022/01/20 09:00:16;;;;;;;6.38;2.88;;;4.30;68.70;;;;;;5052657;28;20125;-83
2022/01/20 09:02:57;;;;;;;6.60;2.90;;;4.40;68.80;;;;;;5069227;28;20031;-82
2022/01/20 09:05:24;;;;;;;5.30;2.63;;;4.40;68.80;;;;;;5068784;28;20414;-82
2022/01/20 09:08:02;;;;;;;6.47;2.55;;;4.40;68.80;;;;;;5068523;28;20051;-83
2022/01/20 09:10:36;;;;;;;5.03;2.92;;;4.50;68.80;;;;;;5052849;28;20028;-83
2022/01/20 09:15:50;;;;;;;6.75;2.63;;;4.50;68.80;;;;;;5068622;28;20033;-83
2022/01/20 09:18:25;;;;;;;6.38;2.95;;;4.60;69.00;;;;;;5068639;28;20033;-80
2022/01/20 09:20:53;;;;;;;6.40;2.88;;;4.60;69.00;;;;;;5068145;28;20053;-78
2022/01/20 09:23:19;;;;;;;7.55;3.15;;;4.70;69.10;;;;;;5051429;28;20028;-77
2022/01/20 09:25:49;;;;;;;7.45;3.55;;;4.80;69.20;;;;;;5069258;28;20506;-78
2022/01/20 09:28:16;;;;;;;5.97;2.70;;;4.90;69.30;;;;;;5067806;28;20494;-77
2022/01/20 09:30:45;;;;;;;8.25;2.90;;;5.00;69.40;;;;;;5067881;28;20526;-77
2022/01/20 09:33:16;;;;;;;8.70;2.53;;;5.10;69.40;;;;;;5068020;28;20154;-77
2022/01/20 09:35:44;;;;;;;5.25;2.33;;;5.10;69.30;;;;;;5067406;28;20052;-78
2022/01/20 09:38:11;;;;;;;9.45;2.78;;;5.20;69.30;;;;;;5068333;28;20025;-78
2022/01/20 09:40:39;;;;;;;6.55;2.40;;;5.40;69.60;;;;;;5067159;28;20036;-78
2022/01/20 09:43:07;;;;;;;8.82;2.63;;;5.50;69.50;;;;;;5067468;28;20112;-76
2022/01/20 09:45:34;;;;;;;8.68;2.47;;;5.60;69.60;;;;;;5067697;28;20049;-76
2022/01/20 09:48:01;;;;;;;5.47;2.42;;;5.70;69.50;;;;;;5067833;28;20033;-79
2022/01/20 09:50:47;;;;;;;6.93;2.38;;;5.80;69.50;;;;;;5069453;28;20032;-82
2022/01/20 09:53:28;;;;;;;4.82;2.22;;;5.90;69.50;;;;;;5065040;28;20028;-81
2022/01/20 09:56:06;;;;;;;6.97;2.25;;;6.00;69.60;;;;;;5068122;28;20174;-80
2022/01/20 09:58:34;;;;;;;6.65;2.30;;;6.20;69.70;;;;;;5067932;28;20089;-80
2022/01/20 10:01:01;;;;;;;7.63;2.38;;;6.30;69.70;;;;;;5067802;28;20093;-80
2022/01/20 10:03:31;;;;;;;9.75;2.13;;;6.40;69.70;;;;;;5068142;28;20166;-80
2022/01/20 10:06:02;;;;;;;11.23;2.75;;;6.50;69.70;;;;;;5067848;28;20028;-81
2022/01/20 10:08:35;;;;;;;8.40;2.28;;;6.60;69.70;;;;;;5068307;28;20111;-80
2022/01/20 10:11:33;;;;;;;6.13;2.22;;;6.70;69.70;;;;;;5051487;28;20052;-84
2022/01/20 10:14:10;;;;;;;10.93;2.95;;;6.80;69.70;;;;;;5067486;28;20044;-78
2022/01/20 10:16:56;;;;;;;7.45;2.05;;;6.90;69.80;;;;;;5068914;28;20051;-78
2022/01/20 10:19:29;;;;;;;9.55;2.90;;;6.90;69.70;;;;;;5067770;28;20431;-77
2022/01/20 10:21:58;;;;;;;6.40;2.60;;;7.00;69.80;;;;;;5067668;28;20049;-78
2022/01/20 10:24:27;;;;;;;11.95;3.17;;;7.10;69.80;;;;;;5068072;28;20077;-77
2022/01/20 10:27:13;;;;;;;7.25;2.25;;;7.20;69.80;;;;;;5066732;28;20503;-77
2022/01/20 10:30:11;;;;;;;9.35;3.03;;;7.30;69.90;;;;;;5066455;28;20036;-77
2022/01/20 10:32:46;;;;;;;5.93;2.50;;;7.40;69.90;;;;;;5059269;28;20052;-77
2022/01/20 10:35:14;;;;;;;9.43;3.40;;;7.40;69.70;;;;;;5089946;28;20040;-77
2022/01/20 10:37:52;;;;;;;13.90;2.50;;;7.50;69.80;;;;;;5090593;28;20028;-77
2022/01/20 10:40:21;;;;;;;10.38;2.50;;;7.60;69.80;;;;;;5075179;28;20074;-78
2022/01/20 10:42:54;;;;;;;10.23;2.17;;;7.70;69.80;;;;;;5092309;28;20033;-78
2022/01/20 10:45:26;;;;;;;11.80;2.63;;;7.70;69.60;;;;;;5075349;28;20153;-78
2022/01/20 10:47:59;;;;;;;10.20;2.20;;;7.80;69.70;;;;;;5091759;28;20047;-78
2022/01/20 10:50:32;;;;;;;11.02;2.20;;;7.90;69.80;;;;;;5093220;28;20020;-81
2022/01/20 10:53:30;;;;;;;6.85;2.05;;;7.90;69.60;;;;;;5092759;28;20020;-81
2022/01/20 10:56:05;;;;;;;9.75;2.60;;;8.00;69.60;;;;;;5091458;28;20048;-81
2022/01/20 10:58:33;;;;;;;7.63;2.15;;;8.10;69.60;;;;;;5075949;28;20111;-83
2022/01/20 11:01:16;;;;;;;10.13;2.53;;;8.10;69.50;;;;;;5069127;28;20202;-83
2022/01/20 11:03:42;;;;;;;8.18;3.03;;;8.10;69.40;;;;;;5068862;28;20074;-83
2022/01/20 11:06:09;;;;;;;6.13;1.92;;;8.20;70.00;;;;;;5068170;28;20043;-87
2022/01/20 11:08:43;;;;;;;8.10;2.13;;;8.20;69.50;;;;;;5068362;28;20029;-83
2022/01/20 11:11:13;;;;;;;9.52;2.88;;;8.10;69.30;;;;;;5067148;28;20056;-83
2022/01/20 11:13:57;;;;;;;9.95;2.65;;;8.10;69.40;;;;;;5068354;28;20039;-83
2022/01/20 11:16:23;;;;;;;7.15;2.65;;;8.10;69.40;;;;;;5067290;28;20476;-83
2022/01/20 11:18:50;;;;;;;5.97;2.00;;;8.10;69.40;;;;;;5083422;28;20032;-83
2022/01/20 11:21:25;;;;;;;6.05;2.30;;;8.10;69.50;;;;;;5066919;28;20090;-83
2022/01/20 11:23:52;;;;;;;11.30;2.35;;;8.10;69.50;;;;;;5066823;28;20286;-82
2022/01/20 11:26:48;;;;;;;9.55;2.15;;;8.00;69.40;;;;;;5083605;28;20028;-83
2022/01/20 11:29:44;;;;;;;9.75;2.03;;;8.00;69.40;;;;;;5066846;28;20111;-84
2022/01/20 11:32:33;;;;;;;8.60;2.95;;;8.00;69.30;;;;;;5068407;28;20040;-83
2022/01/20 11:35:10;;;;;;;9.18;2.70;;;8.00;69.40;;;;;;5050996;28;20040;-83
2022/01/20 11:37:42;;;;;;;10.27;3.20;;;8.00;69.30;;;;;;5067631;28;20131;-83
2022/01/20 11:40:14;;;;;;;7.25;2.20;;;8.00;69.30;;;;;;5066333;28;20039;-82
2022/01/20 11:42:40;;;;;;;8.20;3.20;;;8.00;69.20;;;;;;5049445;28;20033;-81
2022/01/20 11:45:28;;;;;;;10.30;2.90;;;7.90;69.00;;;;;;5066109;28;20040;-83
2022/01/20 11:47:55;;;;;;;10.00;2.20;;;7.90;68.90;;;;;;5049891;28;20111;-83
2022/01/20 11:50:23;;;;;;;6.63;1.88;;;7.90;69.00;;;;;;5066205;28;20040;-85
2022/01/20 11:52:49;;;;;;;11.23;2.72;;;7.90;68.90;;;;;;5067437;28;20119;-79
2022/01/20 11:55:17;;;;;;;9.45;2.20;;;7.90;68.90;;;;;;5065498;28;20036;-79
2022/01/20 11:57:43;;;;;;;7.90;2.47;;;7.90;68.80;;;;;;5066110;28;20028;-79
2022/01/20 12:00:26;;;;;;;9.05;2.30;;;7.90;68.80;;;;;;5067095;28;20154;-79
2022/01/20 12:02:52;;;;;;;9.57;2.07;;;7.90;68.70;;;;;;5066817;28;20025;-77
2022/01/20 12:05:31;;;;;;;10.35;2.50;;;8.00;69.00;;;;;;5038264;28;20180;-79
2022/01/20 12:08:18;;;;;;;9.27;3.42;;;8.00;68.90;;;;;;5047672;28;20106;-78
2022/01/20 12:11:04;;;;;;;12.68;2.63;;;8.00;68.80;;;;;;5063273;28;20025;-77
2022/01/20 12:13:31;;;;;;;8.85;2.17;;;8.00;68.80;;;;;;5046711;28;20105;-78
2022/01/20 12:16:00;;;;;;;10.57;2.72;;;8.00;68.80;;;;;;5062856;28;20237;-78
2022/01/20 12:18:30;;;;;;;9.30;1.95;;;8.00;68.70;;;;;;5066640;28;20628;-78
2022/01/20 12:21:01;;;;;;;9.88;2.15;;;8.00;68.70;;;;;;5065045;28;20479;-78
2022/01/20 12:23:27;;;;;;;7.95;2.22;;;8.00;68.60;;;;;;5065895;28;20025;-78
2022/01/20 12:26:04;;;;;;;9.85;2.42;;;8.00;68.60;;;;;;5066789;28;20415;-78
2022/01/20 12:28:30;;;;;;;10.63;2.88;;;8.00;68.50;;;;;;5049033;28;20115;-78
2022/01/20 12:31:03;;;;;;;5.60;1.85;;;8.00;68.40;;;;;;5064583;28;20176;-78
2022/01/20 12:33:35;;;;;;;5.95;2.40;;;8.00;68.30;;;;;;5067050;28;20328;-78
2022/01/20 12:36:04;;;;;;;6.15;2.05;;;8.10;68.40;;;;;;5068354;28;20036;-78
2022/01/20 12:38:40;;;;;;;8.80;2.30;;;8.10;68.30;;;;;;5068622;28;20123;-78
2022/01/20 12:41:06;;;;;;;8.05;2.42;;;8.10;68.30;;;;;;5068302;28;20033;-77
2022/01/20 12:43:39;;;;;;;7.72;1.80;;;8.10;68.20;;;;;;5067575;28;20061;-81
2022/01/20 12:46:07;;;;;;;8.63;1.75;;;8.20;68.30;;;;;;5057737;28;20032;-78
2022/01/20 12:48:34;;;;;;;9.00;2.50;;;8.20;68.30;;;;;;5074668;28;20162;-80
2022/01/20 12:51:04;;;;;;;9.48;2.25;;;8.40;68.80;;;;;;5076626;28;20126;-77
2022/01/20 12:53:41;;;;;;;5.95;1.67;;;8.50;68.80;;;;;;5075436;28;20024;-77
2022/01/20 12:56:14;;;;;;;7.28;2.40;;;8.70;68.90;;;;;;5071079;28;20110;-77
2022/01/20 12:58:51;;;;;;;6.25;2.08;;;8.70;68.60;;;;;;5066773;28;20188;-78
2022/01/20 13:01:18;;;;;;;8.68;2.03;;;8.80;68.70;;;;;;5067810;28;20043;-78
2022/01/20 13:03:45;;;;;;;6.65;1.67;;;8.80;68.60;;;;;;5083446;28;20033;-80
2022/01/20 13:06:22;;;;;;;8.05;1.73;;;8.80;68.60;;;;;;5067290;28;20373;-78
2022/01/20 13:08:57;;;;;;;8.35;2.15;;;8.90;68.70;;;;;;5065518;28;20379;-78
2022/01/20 13:11:28;;;;;;;;;;;9.00;68.80;;;;;;5067727;28;20056;-79
2022/01/20 13:13:54;;;;;;;6.70;1.90;;;9.10;68.70;;;;;;5070178;28;19919;-80
2022/01/20 13:16:20;;;;;;;9.30;2.40;;;9.30;68.70;;;;;;5089238;28;20112;-79
2022/01/20 13:19:06;;;;;;;6.47;2.03;;;9.30;68.40;;;;;;5079380;28;20040;-78
2022/01/20 13:21:35;;;;;;;7.88;2.78;;;9.40;68.30;;;;;;5077077;28;20385;-78
2022/01/20 13:24:03;;;;;;;9.73;2.28;;;9.30;68.00;;;;;;5074570;28;20040;-78
2022/01/20 13:26:29;;;;;;;8.98;2.50;;;9.30;67.90;;;;;;5069947;28;20107;-77
2022/01/20 13:29:00;;;;;;;9.35;2.40;;;9.30;67.90;;;;;;5070138;28;20040;-77
2022/01/20 13:31:26;;;;;;;7.40;2.45;;;9.30;67.90;;;;;;5070101;28;20395;-77
2022/01/20 13:33:52;;;;;;;6.65;2.70;;;9.20;67.80;;;;;;5068383;28;20241;-77
2022/01/20 13:36:22;;;;;;;8.30;2.13;;;9.20;67.80;;;;;;5069701;28;20040;-77
2022/01/20 13:38:50;;;;;;;6.13;1.92;;;9.20;67.80;;;;;;5070616;28;20035;-77
2022/01/20 13:41:20;;;;;;;10.48;2.67;;;9.20;67.80;;;;;;5069896;28;20391;-77
2022/01/20 13:46:42;;;;;;;8.50;2.60;;;9.30;67.90;;;;;;5068312;28;20506;-77
2022/01/20 13:49:11;;;;;;;7.55;2.72;;;9.40;67.90;;;;;;5069272;28;20028;-77
2022/01/20 13:51:38;;;;;;;8.55;2.85;;;9.40;67.70;;;;;;5069210;28;20036;-76
2022/01/20 13:54:04;;;;;;;9.27;2.72;;;9.50;67.70;;;;;;5051156;28;20040;-76
2022/01/20 13:56:31;;;;;;;9.23;3.10;;;9.50;67.50;;;;;;5069908;28;20036;-76
2022/01/20 13:59:10;;;;;;;9.75;2.83;;;9.50;67.40;;;;;;5069086;28;20551;-77
2022/01/20 14:01:36;;;;;;;8.32;2.58;;;9.50;67.30;;;;;;5069453;28;20671;-78
2022/01/20 14:04:03;;;;;;;5.85;2.03;;;9.50;67.30;;;;;;5060000;28;20059;-79
2022/01/20 14:06:30;;;;;;;5.97;2.20;;;9.50;67.40;;;;;;5048225;28;20025;-77
2022/01/20 14:08:56;;;;;;;7.00;2.38;;;9.40;67.20;;;;;;5067359;28;20275;-78
2022/01/20 14:11:22;;;;;;;9.90;2.55;;;9.40;67.30;;;;;;5069219;28;20460;-78
2022/01/20 14:13:49;;;;;;;6.15;2.20;;;9.30;67.20;;;;;;5069213;28;20028;-78
2022/01/20 14:16:16;;;;;;;7.40;2.53;;;9.30;67.20;;;;;;5069144;28;20033;-79
2022/01/20 14:18:44;;;;;;;6.97;1.95;;;9.30;67.20;;;;;;5069435;28;20032;-79
2022/01/20 14:21:12;;;;;;;7.47;2.35;;;9.20;67.10;;;;;;5068481;28;20389;-79
2022/01/20 14:23:38;;;;;;;7.80;2.03;;;9.20;67.10;;;;;;5067697;28;20414;-79
2022/01/20 14:26:07;;;;;;;5.15;3.03;;;9.20;67.10;;;;;;5068625;28;20112;-80